Time;durP1;ratioP1;P1;durP2;ratioP2;P2;SDS_P1;SDS_P2;PMS_P1;PMS_P2;Temp;Humidity;BMP_temperature;BMP_pressure;BME280_temperature;BME280_humidity;BME280_pressure;Samples;Min_cycle;Max_cycle;Signal;HPM_P1;HPM_P2
2022/04/09 00:01:07;;;;;;;5.65;1.40;;;18.20;60.70;;;;;;5023551;28;20025;-61
2022/04/09 00:03:33;;;;;;;5.78;1.50;;;18.20;60.90;;;;;;5020555;28;20473;-61
2022/04/09 00:05:59;;;;;;;3.13;1.30;;;18.20;60.60;;;;;;5023911;28;20029;-61
2022/04/09 00:08:24;;;;;;;4.45;1.55;;;18.10;60.50;;;;;;5021275;28;20034;-61
2022/04/09 00:10:52;;;;;;;3.88;1.40;;;18.10;60.70;;;;;;5018508;28;20036;-61
2022/04/09 00:13:19;;;;;;;2.90;1.30;;;18.10;60.50;;;;;;5025594;28;20406;-61
2022/04/09 00:15:46;;;;;;;5.70;1.23;;;18.10;60.60;;;;;;5016388;28;20018;-61
2022/04/09 00:18:15;;;;;;;7.65;1.77;;;18.10;60.60;;;;;;5025301;28;20148;-60
2022/04/09 00:20:41;;;;;;;4.50;1.20;;;18.10;60.50;;;;;;5023140;28;20037;-60
2022/04/09 00:23:10;;;;;;;5.28;1.48;;;18.00;60.60;;;;;;5017289;28;20030;-61
2022/04/09 00:25:35;;;;;;;4.40;1.23;;;18.00;60.50;;;;;;5021740;28;20512;-61
2022/04/09 00:28:01;;;;;;;4.38;1.48;;;18.00;60.50;;;;;;5020917;28;20037;-61
2022/04/09 00:30:27;;;;;;;3.33;1.30;;;18.00;60.40;;;;;;5016309;28;20438;-61
2022/04/09 00:32:54;;;;;;;4.57;1.20;;;18.00;60.40;;;;;;5023750;28;20021;-60
2022/04/09 00:35:20;;;;;;;4.32;1.42;;;17.90;60.30;;;;;;5020391;28;20494;-61
2022/04/09 00:37:46;;;;;;;1.70;1.10;;;17.90;60.40;;;;;;5016184;28;20045;-60
2022/04/09 00:40:13;;;;;;;3.70;1.38;;;17.90;60.20;;;;;;5022716;28;20032;-61
2022/04/09 00:42:42;;;;;;;5.30;1.48;;;17.90;60.50;;;;;;5020754;28;20040;-61
2022/04/09 00:45:12;;;;;;;4.65;1.13;;;17.80;60.40;;;;;;5045189;28;20235;-61
2022/04/09 00:47:38;;;;;;;4.93;1.20;;;17.80;60.30;;;;;;5015862;28;20517;-60
2022/04/09 00:50:05;;;;;;;4.20;1.40;;;17.80;61.30;;;;;;5020870;28;20105;-61
2022/04/09 00:52:38;;;;;;;5.30;1.17;;;17.80;60.50;;;;;;5015319;28;20033;-61
2022/04/09 00:55:05;;;;;;;4.40;1.40;;;17.80;60.40;;;;;;5020971;28;20506;-61
2022/04/09 00:57:37;;;;;;;4.53;1.27;;;17.80;60.40;;;;;;5017405;28;20037;-61
2022/04/09 01:00:09;;;;;;;2.97;1.30;;;17.70;60.30;;;;;;5023035;28;20037;-61
2022/04/09 01:02:42;;;;;;;3.72;1.42;;;17.80;60.70;;;;;;5017199;28;20391;-61
2022/04/09 01:05:08;;;;;;;4.30;1.30;;;17.70;60.60;;;;;;5014404;28;20034;-61
2022/04/09 01:07:34;;;;;;;2.90;1.08;;;17.70;60.50;;;;;;5019587;28;20444;-61
2022/04/09 01:10:01;;;;;;;3.28;1.27;;;17.70;60.50;;;;;;5014649;28;20046;-61
2022/04/09 01:12:27;;;;;;;2.33;1.20;;;17.70;60.80;;;;;;5020146;28;20024;-61
2022/04/09 01:14:53;;;;;;;2.28;0.98;;;17.70;60.80;;;;;;5003970;28;20394;-61
2022/04/09 01:17:18;;;;;;;3.78;1.23;;;17.60;60.80;;;;;;5017628;28;20067;-61
2022/04/09 01:19:44;;;;;;;3.58;1.30;;;17.60;60.80;;;;;;5017355;28;20047;-61
2022/04/09 01:22:09;;;;;;;4.43;1.17;;;17.60;60.80;;;;;;5016548;28;20520;-61
2022/04/09 01:24:35;;;;;;;4.13;1.30;;;17.60;60.50;;;;;;5014336;28;20521;-61
2022/04/09 01:27:01;;;;;;;3.22;1.20;;;17.60;60.70;;;;;;5021262;28;20037;-61
2022/04/09 01:29:27;;;;;;;3.70;1.00;;;17.50;60.60;;;;;;5018099;28;20056;-61
2022/04/09 01:31:52;;;;;;;2.63;0.98;;;17.60;60.80;;;;;;5020231;28;20025;-60
2022/04/09 01:34:18;;;;;;;2.67;1.02;;;17.50;60.70;;;;;;5019221;28;20029;-61
2022/04/09 01:36:43;;;;;;;2.33;0.95;;;17.50;60.60;;;;;;5020909;28;20032;-61
2022/04/09 01:39:09;;;;;;;3.05;1.23;;;17.50;60.70;;;;;;5022200;28;20033;-61
2022/04/09 01:41:35;;;;;;;2.63;1.10;;;17.50;60.60;;;;;;5016541;28;20026;-61
2022/04/09 01:44:00;;;;;;;3.90;0.95;;;17.50;60.80;;;;;;5018317;28;20073;-60
2022/04/09 01:46:26;;;;;;;3.13;1.15;;;17.50;60.60;;;;;;5012384;28;20060;-61
2022/04/09 01:48:52;;;;;;;4.63;1.30;;;17.40;60.70;;;;;;5021681;28;20068;-61
2022/04/09 01:51:17;;;;;;;2.85;1.10;;;17.40;60.80;;;;;;5017491;28;20077;-61
2022/04/09 01:53:43;;;;;;;3.50;1.20;;;17.40;60.80;;;;;;5018110;28;20049;-61
2022/04/09 01:56:08;;;;;;;2.13;1.00;;;17.40;60.50;;;;;;5021631;28;20033;-61
2022/04/09 01:58:34;;;;;;;3.22;1.00;;;17.40;60.80;;;;;;5016746;28;20391;-60
2022/04/09 02:01:00;;;;;;;2.83;0.95;;;17.40;60.70;;;;;;5019655;28;20533;-61
2022/04/09 02:03:26;;;;;;;3.53;1.08;;;17.40;60.70;;;;;;5013893;28;20029;-61
2022/04/09 02:05:52;;;;;;;2.63;0.90;;;17.30;60.70;;;;;;5018473;28;20029;-60
2022/04/09 02:08:17;;;;;;;2.83;1.00;;;17.30;60.60;;;;;;5020276;28;20240;-60
2022/04/09 02:10:43;;;;;;;3.05;1.00;;;17.40;60.90;;;;;;5017363;28;20033;-61
2022/04/09 02:13:13;;;;;;;3.50;1.00;;;17.30;60.70;;;;;;5012667;28;20040;-61
2022/04/09 02:15:38;;;;;;;3.13;0.93;;;17.30;60.70;;;;;;5021093;28;20465;-61
2022/04/09 02:18:04;;;;;;;2.72;1.13;;;17.30;61.70;;;;;;5016350;28;20053;-61
2022/04/09 02:20:30;;;;;;;2.17;0.88;;;17.20;60.50;;;;;;5014279;28;20386;-61
2022/04/09 02:22:56;;;;;;;3.72;1.10;;;17.30;60.60;;;;;;5017321;28;20029;-61
2022/04/09 02:25:22;;;;;;;3.88;1.13;;;17.20;60.50;;;;;;5016937;28;20440;-61
2022/04/09 02:27:47;;;;;;;2.55;0.95;;;17.20;60.50;;;;;;5018744;28;20030;-61
2022/04/09 02:30:14;;;;;;;3.13;1.20;;;17.20;60.50;;;;;;5017978;28;20474;-61
2022/04/09 02:32:43;;;;;;;2.78;0.90;;;17.20;60.30;;;;;;5022965;28;20124;-61
2022/04/09 02:35:09;;;;;;;2.30;1.00;;;17.20;60.40;;;;;;5018772;28;20529;-60
2022/04/09 02:37:34;;;;;;;3.20;1.00;;;17.20;60.20;;;;;;5012207;28;20108;-61
2022/04/09 02:40:01;;;;;;;3.15;1.00;;;17.10;60.30;;;;;;5016166;28;20113;-61
2022/04/09 02:42:26;;;;;;;2.88;0.88;;;17.20;59.90;;;;;;5021381;28;20034;-61
2022/04/09 02:44:52;;;;;;;3.05;1.08;;;17.10;60.00;;;;;;5021829;28;20100;-61
2022/04/09 02:47:18;;;;;;;4.05;1.10;;;17.10;60.10;;;;;;5020018;28;20033;-61
2022/04/09 02:49:44;;;;;;;2.92;1.05;;;17.10;59.80;;;;;;5016180;28;20529;-61
2022/04/09 02:52:09;;;;;;;3.20;1.00;;;17.10;60.00;;;;;;5015388;28;20026;-61
2022/04/09 02:54:35;;;;;;;2.45;1.05;;;17.10;60.00;;;;;;5017434;28;20409;-61
2022/04/09 02:57:01;;;;;;;2.33;1.00;;;17.10;60.10;;;;;;5020890;28;20463;-61
2022/04/09 02:59:27;;;;;;;3.42;1.00;;;17.00;59.90;;;;;;5021891;28;20038;-61
2022/04/09 03:01:53;;;;;;;2.13;0.85;;;17.10;59.80;;;;;;5020334;28;20022;-63
2022/04/09 03:04:18;;;;;;;1.50;0.90;;;17.10;59.60;;;;;;5027532;28;20509;-61
2022/04/09 03:06:44;;;;;;;2.13;0.85;;;17.00;59.80;;;;;;5020601;28;20026;-61
2022/04/09 03:09:09;;;;;;;2.65;1.13;;;17.00;59.70;;;;;;5024561;28;20406;-61
2022/04/09 03:11:35;;;;;;;2.00;0.80;;;17.00;59.30;;;;;;5022297;28;20037;-61
2022/04/09 03:14:01;;;;;;;3.45;1.00;;;17.00;59.80;;;;;;5023005;28;20036;-61
2022/04/09 03:16:27;;;;;;;2.35;0.90;;;17.00;59.60;;;;;;5017755;28;20040;-61
2022/04/09 03:18:52;;;;;;;2.38;1.00;;;17.00;59.50;;;;;;5018283;28;20049;-61
2022/04/09 03:21:18;;;;;;;2.30;0.90;;;16.90;59.60;;;;;;5023359;28;20417;-60
2022/04/09 03:23:43;;;;;;;2.38;1.10;;;16.90;59.40;;;;;;5024387;28;20025;-60
2022/04/09 03:26:11;;;;;;;2.60;0.93;;;16.90;59.30;;;;;;5021424;28;20029;-60
2022/04/09 03:28:37;;;;;;;2.53;1.10;;;16.90;59.30;;;;;;5020652;28;20077;-61
2022/04/09 03:31:03;;;;;;;1.80;0.95;;;16.80;59.40;;;;;;5021293;28;20052;-61
2022/04/09 03:33:28;;;;;;;3.25;1.02;;;16.90;59.50;;;;;;5021583;28;20441;-61
2022/04/09 03:35:54;;;;;;;1.90;0.80;;;16.90;59.60;;;;;;5021228;28;20478;-60
2022/04/09 03:38:20;;;;;;;2.28;0.93;;;16.90;59.50;;;;;;5020221;28;20044;-61
2022/04/09 03:40:46;;;;;;;3.38;0.93;;;16.80;59.50;;;;;;5018278;28;20083;-61
2022/04/09 03:43:12;;;;;;;2.92;0.80;;;16.80;59.50;;;;;;5023952;28;20029;-61
2022/04/09 03:45:38;;;;;;;1.83;0.80;;;16.80;59.70;;;;;;5029146;28;20717;-61
2022/04/09 03:48:04;;;;;;;2.47;0.98;;;16.80;59.60;;;;;;5022571;28;20025;-61
2022/04/09 03:50:30;;;;;;;2.00;1.08;;;16.80;59.40;;;;;;5022852;28;20044;-60
2022/04/09 03:52:57;;;;;;;2.47;0.80;;;16.80;59.40;;;;;;5021250;28;20105;-60
2022/04/09 03:55:22;;;;;;;2.80;0.90;;;16.80;59.40;;;;;;5020745;28;20048;-60
2022/04/09 03:57:48;;;;;;;2.83;1.00;;;16.80;59.50;;;;;;5018893;28;20060;-61
2022/04/09 04:00:14;;;;;;;3.65;0.98;;;16.80;59.60;;;;;;5024181;28;20401;-60
2022/04/09 04:02:40;;;;;;;2.17;1.00;;;16.70;59.50;;;;;;5018232;28;20084;-60
2022/04/09 04:05:06;;;;;;;2.03;0.85;;;16.70;59.60;;;;;;5026020;28;20116;-60
2022/04/09 04:07:33;;;;;;;2.88;1.00;;;16.70;59.50;;;;;;5019904;28;20034;-60
2022/04/09 04:10:06;;;;;;;2.20;0.90;;;16.70;59.50;;;;;;5018549;28;20426;-60
2022/04/09 04:12:32;;;;;;;2.72;0.95;;;16.70;59.60;;;;;;5024866;28;20038;-60
2022/04/09 04:14:57;;;;;;;2.08;0.70;;;16.70;59.50;;;;;;5018225;28;20083;-60
2022/04/09 04:17:23;;;;;;;2.35;0.88;;;16.70;59.60;;;;;;5014938;28;20502;-61
2022/04/09 04:19:49;;;;;;;1.63;0.70;;;16.70;59.60;;;;;;5018200;28;20449;-61
2022/04/09 04:22:14;;;;;;;1.40;0.77;;;16.60;59.50;;;;;;5016084;28;20048;-60
2022/04/09 04:24:40;;;;;;;1.75;0.90;;;16.60;59.50;;;;;;5015529;28;20083;-60
2022/04/09 04:27:06;;;;;;;2.88;0.93;;;16.60;59.50;;;;;;5018878;28;20034;-60
2022/04/09 04:29:32;;;;;;;2.35;0.85;;;16.60;59.60;;;;;;5021809;28;20041;-60
2022/04/09 04:31:58;;;;;;;3.10;1.00;;;16.60;59.50;;;;;;5019413;28;20053;-60
2022/04/09 04:34:24;;;;;;;2.30;0.80;;;16.60;59.50;;;;;;5019016;28;20112;-60
2022/04/09 04:36:49;;;;;;;2.75;0.80;;;16.60;59.50;;;;;;5018807;28;20038;-60
2022/04/09 04:39:15;;;;;;;2.10;0.80;;;16.60;59.50;;;;;;5017662;28;20026;-60
2022/04/09 04:41:41;;;;;;;1.90;0.80;;;16.60;59.50;;;;;;5016935;28;20029;-60
2022/04/09 04:44:07;;;;;;;2.35;0.70;;;16.50;59.50;;;;;;5023214;28;20067;-60
2022/04/09 04:46:33;;;;;;;2.08;0.90;;;16.50;59.50;;;;;;5021076;28;20084;-61
2022/04/09 04:48:59;;;;;;;2.53;0.80;;;16.50;59.60;;;;;;5018427;28;20406;-60
2022/04/09 04:51:25;;;;;;;1.80;0.90;;;16.50;59.50;;;;;;5017835;28;20033;-60
2022/04/09 04:53:50;;;;;;;2.45;0.70;;;16.50;59.50;;;;;;5019821;28;20029;-60
2022/04/09 04:56:16;;;;;;;2.60;0.88;;;16.50;59.60;;;;;;5021752;28;20033;-60
2022/04/09 04:58:42;;;;;;;1.52;0.77;;;16.50;59.70;;;;;;5018772;28;20053;-61
2022/04/09 05:01:07;;;;;;;1.80;0.90;;;16.40;59.50;;;;;;5018214;28;20030;-61
2022/04/09 05:03:35;;;;;;;1.30;0.68;;;16.50;59.60;;;;;;5019271;28;20022;-60
2022/04/09 05:06:01;;;;;;;2.22;0.88;;;16.40;59.70;;;;;;5021860;28;20037;-60
2022/04/09 05:08:26;;;;;;;2.17;0.70;;;16.40;59.60;;;;;;5021713;28;20037;-61
2022/04/09 05:10:52;;;;;;;2.40;0.90;;;16.40;59.70;;;;;;5018605;28;20037;-60
2022/04/09 05:13:18;;;;;;;2.40;0.90;;;16.40;59.70;;;;;;5021603;28;20029;-60
2022/04/09 05:15:44;;;;;;;1.10;0.55;;;16.40;59.70;;;;;;5023887;28;20061;-61
2022/04/09 05:18:09;;;;;;;2.13;0.90;;;16.40;59.70;;;;;;5016886;28;20092;-60
2022/04/09 05:20:35;;;;;;;3.55;0.70;;;16.40;59.80;;;;;;5025431;28;20534;-60
2022/04/09 05:23:01;;;;;;;2.42;0.90;;;16.40;59.70;;;;;;5023198;28;20036;-60
2022/04/09 05:25:31;;;;;;;2.10;0.80;;;16.40;59.80;;;;;;5022004;28;20116;-60
2022/04/09 05:27:57;;;;;;;3.33;0.80;;;16.30;59.80;;;;;;5021848;28;20547;-61
2022/04/09 05:30:23;;;;;;;2.40;0.80;;;16.30;59.80;;;;;;5026077;28;20509;-60
2022/04/09 05:32:49;;;;;;;2.83;0.70;;;16.40;59.80;;;;;;5017098;28;20109;-60
2022/04/09 05:35:16;;;;;;;1.27;0.57;;;16.30;59.90;;;;;;5019114;28;20056;-60
2022/04/09 05:37:46;;;;;;;2.85;0.95;;;16.30;60.00;;;;;;5021035;28;20422;-60
2022/04/09 05:40:12;;;;;;;1.17;0.70;;;16.30;59.90;;;;;;5020070;28;20401;-60
2022/04/09 05:42:38;;;;;;;3.97;0.90;;;16.30;59.90;;;;;;5024065;28;20034;-60
2022/04/09 05:45:04;;;;;;;2.50;0.80;;;16.30;59.90;;;;;;5016905;28;20046;-60
2022/04/09 05:47:30;;;;;;;2.50;0.80;;;16.30;59.90;;;;;;5019648;28;20523;-60
2022/04/09 05:49:58;;;;;;;1.25;0.70;;;16.30;60.00;;;;;;5019130;28;20041;-60
2022/04/09 05:52:24;;;;;;;0.90;0.60;;;16.20;60.00;;;;;;5018222;28;20057;-60
2022/04/09 05:54:49;;;;;;;1.60;0.63;;;16.20;60.00;;;;;;5016216;28;20453;-60
2022/04/09 05:57:16;;;;;;;2.80;0.82;;;16.20;60.00;;;;;;5018519;28;20022;-60
2022/04/09 05:59:41;;;;;;;3.60;1.10;;;16.20;60.10;;;;;;5020667;28;20041;-60
2022/04/09 06:02:08;;;;;;;3.03;0.82;;;16.20;60.00;;;;;;5018254;28;20022;-60
2022/04/09 06:04:33;;;;;;;2.72;0.80;;;16.20;60.10;;;;;;5023680;28;20040;-60
2022/04/09 06:07:00;;;;;;;1.75;0.80;;;16.20;60.10;;;;;;5019300;28;20022;-60
2022/04/09 06:09:26;;;;;;;2.40;0.95;;;16.20;60.10;;;;;;5020854;28;20109;-60
2022/04/09 06:11:52;;;;;;;1.67;0.75;;;16.10;60.00;;;;;;5020333;28;20025;-61
2022/04/09 06:14:17;;;;;;;1.67;0.80;;;16.10;60.10;;;;;;5019870;28;20490;-60
2022/04/09 06:16:44;;;;;;;1.00;0.70;;;16.10;60.10;;;;;;5023453;28;20401;-60
2022/04/09 06:19:10;;;;;;;2.40;0.95;;;16.10;60.10;;;;;;5018744;28;20039;-60
2022/04/09 06:21:36;;;;;;;2.72;0.70;;;16.10;60.10;;;;;;5019803;28;20025;-60
2022/04/09 06:24:01;;;;;;;2.47;0.70;;;16.10;60.20;;;;;;5018350;28;20030;-60
2022/04/09 06:26:27;;;;;;;3.30;0.80;;;16.10;60.20;;;;;;5019114;28;20030;-60
2022/04/09 06:28:54;;;;;;;2.33;0.80;;;16.10;60.20;;;;;;5018896;28;20065;-60
2022/04/09 06:31:19;;;;;;;2.22;0.75;;;16.10;60.20;;;;;;5017911;28;20026;-61
2022/04/09 06:33:45;;;;;;;3.10;0.77;;;16.10;60.30;;;;;;5014586;28;20547;-60
2022/04/09 06:36:10;;;;;;;2.72;0.73;;;16.10;60.30;;;;;;5023313;28;20423;-60
2022/04/09 06:38:36;;;;;;;1.45;0.70;;;16.10;60.30;;;;;;5017923;28;20025;-61
2022/04/09 06:41:02;;;;;;;3.45;0.90;;;16.00;60.20;;;;;;5013894;28;20100;-60
2022/04/09 06:43:27;;;;;;;2.20;0.80;;;16.00;60.20;;;;;;5018501;28;20029;-60
2022/04/09 06:45:53;;;;;;;3.53;0.90;;;16.00;60.20;;;;;;5020671;28;20038;-61
2022/04/09 06:48:19;;;;;;;1.70;0.70;;;16.00;60.20;;;;;;5014330;28;20103;-60
2022/04/09 06:50:44;;;;;;;2.80;0.80;;;16.00;60.20;;;;;;5019440;28;20037;-60
2022/04/09 06:53:10;;;;;;;1.73;0.70;;;16.00;60.20;;;;;;5021605;28;20037;-60
2022/04/09 06:55:36;;;;;;;2.13;0.60;;;16.00;60.30;;;;;;5022255;28;20469;-60
2022/04/09 06:58:02;;;;;;;1.77;0.70;;;16.00;60.30;;;;;;5020418;28;20478;-60
2022/04/09 07:00:28;;;;;;;2.65;0.90;;;16.00;60.30;;;;;;5020974;28;20025;-60
2022/04/09 07:02:53;;;;;;;1.75;0.85;;;16.00;60.20;;;;;;5017349;28;20086;-60
2022/04/09 07:05:19;;;;;;;2.88;0.60;;;16.00;60.30;;;;;;5018515;28;20226;-60
2022/04/09 07:07:48;;;;;;;2.70;0.77;;;15.90;60.40;;;;;;5016024;28;20464;-60
2022/04/09 07:10:15;;;;;;;4.28;0.88;;;15.90;60.90;;;;;;5027314;28;20052;-61
2022/04/09 07:12:40;;;;;;;3.97;0.80;;;15.90;60.90;;;;;;5019538;28;20029;-60
2022/04/09 07:15:06;;;;;;;4.15;0.98;;;15.90;60.90;;;;;;5019566;28;20509;-61
2022/04/09 07:17:32;;;;;;;4.90;1.02;;;15.90;60.80;;;;;;5013528;28;20030;-61
2022/04/09 07:19:58;;;;;;;9.35;0.90;;;16.00;61.30;;;;;;5019363;28;20040;-61
2022/04/09 07:22:24;;;;;;;4.55;0.93;;;16.00;61.30;;;;;;5015892;28;20570;-61
2022/04/09 07:24:52;;;;;;;5.07;0.95;;;16.00;61.40;;;;;;5021775;28;20141;-61
2022/04/09 07:27:18;;;;;;;2.70;0.90;;;16.10;61.20;;;;;;5020817;28;20096;-61
2022/04/09 07:29:44;;;;;;;6.32;1.45;;;16.10;61.30;;;;;;5020653;28;20090;-61
2022/04/09 07:32:09;;;;;;;6.22;1.27;;;16.10;63.30;;;;;;5015804;28;20076;-61
2022/04/09 07:34:35;;;;;;;5.35;1.10;;;16.10;64.20;;;;;;5019953;28;20030;-61
2022/04/09 07:37:01;;;;;;;8.00;1.30;;;16.10;63.30;;;;;;5012608;28;20510;-61
2022/04/09 07:39:26;;;;;;;7.57;1.10;;;16.20;63.70;;;;;;5018259;28;20099;-61
2022/04/09 07:41:52;;;;;;;7.85;1.25;;;16.20;63.30;;;;;;5017138;28;20453;-61
2022/04/09 07:44:18;;;;;;;7.13;1.10;;;16.20;64.10;;;;;;5021418;28;20550;-61
2022/04/09 07:46:43;;;;;;;5.22;0.98;;;16.10;65.00;;;;;;5019130;28;20036;-61
2022/04/09 07:49:09;;;;;;;9.23;1.38;;;16.20;65.00;;;;;;5019728;28;20037;-61
2022/04/09 07:51:34;;;;;;;6.57;1.05;;;16.10;63.90;;;;;;5018301;28;20315;-61
2022/04/09 07:54:01;;;;;;;7.00;1.50;;;16.10;63.90;;;;;;5017367;28;20774;-61
2022/04/09 07:56:26;;;;;;;8.07;1.27;;;16.10;63.90;;;;;;5018410;28;20513;-61
2022/04/09 07:58:52;;;;;;;12.93;1.30;;;16.10;63.90;;;;;;5020510;28;20026;-61
2022/04/09 08:01:18;;;;;;;9.55;1.10;;;16.10;63.80;;;;;;5021196;28;20052;-61
2022/04/09 08:03:44;;;;;;;5.97;1.00;;;16.20;64.00;;;;;;5015762;28;20363;-61
2022/04/09 08:06:10;;;;;;;5.43;1.08;;;16.20;64.00;;;;;;5020236;28;20045;-61
2022/04/09 08:08:36;;;;;;;6.32;1.35;;;16.20;64.10;;;;;;5020271;28;20037;-61
2022/04/09 08:11:02;;;;;;;6.00;1.17;;;16.20;64.10;;;;;;5020947;28;20364;-61
2022/04/09 08:13:27;;;;;;;6.47;1.33;;;16.30;64.20;;;;;;5019703;28;20151;-61
2022/04/09 08:15:53;;;;;;;5.63;1.23;;;16.20;63.90;;;;;;5021456;28;20482;-61
2022/04/09 08:18:18;;;;;;;5.22;1.10;;;16.30;63.90;;;;;;5032895;28;20511;-61
2022/04/09 08:20:44;;;;;;;4.60;1.17;;;16.30;63.70;;;;;;5019585;28;20052;-61
2022/04/09 08:23:10;;;;;;;8.60;1.33;;;16.30;63.80;;;;;;5022733;28;20029;-61
2022/04/09 08:25:35;;;;;;;3.60;0.93;;;16.30;63.80;;;;;;5022514;28;20033;-61
2022/04/09 08:28:02;;;;;;;4.88;1.02;;;16.30;63.80;;;;;;5020746;28;20060;-61
2022/04/09 08:30:28;;;;;;;5.90;1.30;;;16.40;63.90;;;;;;5022820;28;20060;-61
2022/04/09 08:32:54;;;;;;;5.97;1.45;;;16.40;63.70;;;;;;5020365;28;20516;-61
2022/04/09 08:35:20;;;;;;;6.07;1.20;;;16.30;63.70;;;;;;5025190;28;20112;-61
2022/04/09 08:37:55;;;;;;;6.40;1.13;;;16.40;63.60;;;;;;5022426;28;20109;-61
2022/04/09 08:40:21;;;;;;;;;;;16.40;63.60;;;;;;5020670;28;20485;-61
2022/04/09 08:42:48;;;;;;;4.95;1.42;;;16.40;63.50;;;;;;5017653;28;20009;-61
2022/04/09 08:45:15;;;;;;;9.13;1.30;;;16.40;63.50;;;;;;5023353;28;20122;-61
2022/04/09 08:47:41;;;;;;;5.05;1.40;;;16.40;63.40;;;;;;5012417;28;20038;-61
2022/04/09 08:50:10;;;;;;;4.15;1.15;;;16.40;63.40;;;;;;5016008;28;20061;-61
2022/04/09 08:52:39;;;;;;;6.88;1.17;;;16.40;63.40;;;;;;5017644;28;20080;-61
2022/04/09 08:55:06;;;;;;;7.55;2.08;;;16.50;63.30;;;;;;5017041;28;20032;-61
2022/04/09 08:57:34;;;;;;;5.47;1.50;;;16.50;63.20;;;;;;5011191;28;20495;-61
2022/04/09 09:00:06;;;;;;;5.70;1.30;;;16.50;63.20;;;;;;5033347;28;20465;-61
2022/04/09 09:02:34;;;;;;;5.47;1.40;;;16.50;63.10;;;;;;5022063;28;20080;-61
2022/04/09 09:05:00;;;;;;;5.05;1.20;;;16.50;63.00;;;;;;5025268;28;20017;-61
2022/04/09 09:07:28;;;;;;;7.32;1.40;;;16.50;63.10;;;;;;5025247;28;20040;-61
2022/04/09 09:09:53;;;;;;;6.93;1.73;;;16.50;63.20;;;;;;5024259;28;20473;-61
2022/04/09 09:12:27;;;;;;;7.20;1.35;;;16.50;63.20;;;;;;5021397;28;20030;-61
2022/04/09 09:14:53;;;;;;;5.85;1.38;;;16.50;63.20;;;;;;5015465;28;20042;-61
2022/04/09 09:17:26;;;;;;;5.90;1.23;;;16.50;63.20;;;;;;5013279;28;20490;-61
2022/04/09 09:19:51;;;;;;;8.82;1.75;;;16.50;63.30;;;;;;5016978;28;20033;-61
2022/04/09 09:22:18;;;;;;;11.50;1.40;;;16.50;63.10;;;;;;5012111;28;20018;-61
2022/04/09 09:24:44;;;;;;;5.28;1.10;;;16.50;63.10;;;;;;5023354;28;20033;-61
2022/04/09 09:27:10;;;;;;;6.07;1.30;;;16.50;63.00;;;;;;5017622;28;20106;-61
2022/04/09 09:29:36;;;;;;;10.20;1.58;;;16.50;63.20;;;;;;5016668;28;20121;-61
2022/04/09 09:32:04;;;;;;;3.88;1.30;;;16.50;63.70;;;;;;5019666;28;20029;-61
2022/04/09 09:34:29;;;;;;;4.20;1.20;;;16.60;63.50;;;;;;5013746;28;20039;-61
2022/04/09 09:36:55;;;;;;;3.78;0.98;;;16.60;63.50;;;;;;5011883;28;20022;-61
2022/04/09 09:39:23;;;;;;;6.22;1.25;;;16.60;63.60;;;;;;5018512;28;20777;-61
2022/04/09 09:41:59;;;;;;;4.95;1.00;;;16.60;63.50;;;;;;5014056;28;20106;-61
2022/04/09 09:44:32;;;;;;;6.38;1.10;;;16.70;63.70;;;;;;5017076;28;20144;-61
2022/04/09 09:47:12;;;;;;;12.57;2.05;;;16.70;63.50;;;;;;5015956;28;20037;-61
2022/04/09 09:49:58;;;;;;;7.03;1.90;;;16.70;65.80;;;;;;5018954;28;20383;-61
2022/04/09 09:52:29;;;;;;;5.28;1.30;;;16.70;66.40;;;;;;5013890;28;20046;-61
2022/04/09 09:55:04;;;;;;;6.60;1.45;;;16.70;66.10;;;;;;5009150;28;20607;-61
2022/04/09 09:57:31;;;;;;;9.27;1.67;;;16.80;65.60;;;;;;5014054;28;20034;-61
2022/04/09 09:59:59;;;;;;;7.22;1.67;;;16.80;65.30;;;;;;5016683;28;20502;-61
2022/04/09 10:02:25;;;;;;;7.80;1.50;;;16.90;65.20;;;;;;5014235;28;20080;-61
2022/04/09 10:04:51;;;;;;;5.20;1.10;;;16.80;65.20;;;;;;5015642;28;20029;-61
2022/04/09 10:07:20;;;;;;;6.43;1.50;;;16.90;65.20;;;;;;5013140;28;20402;-61
2022/04/09 10:09:48;;;;;;;8.05;1.50;;;16.90;65.00;;;;;;5013518;28;20261;-61
2022/04/09 10:12:14;;;;;;;8.38;1.40;;;16.90;64.90;;;;;;5016834;28;20054;-61
2022/04/09 10:14:40;;;;;;;8.60;1.48;;;16.90;64.90;;;;;;5016918;28;20117;-61
2022/04/09 10:17:06;;;;;;;8.23;1.50;;;16.90;64.80;;;;;;5015813;28;20108;-62
2022/04/09 10:19:32;;;;;;;8.27;1.60;;;16.90;64.70;;;;;;5019774;28;20033;-61
2022/04/09 10:21:58;;;;;;;4.63;1.13;;;17.00;64.70;;;;;;5022572;28;20022;-61
2022/04/09 10:24:26;;;;;;;6.88;1.60;;;17.00;64.60;;;;;;5024627;28;20056;-61
2022/04/09 10:26:54;;;;;;;5.15;1.23;;;17.00;64.60;;;;;;5013150;28;20484;-61
2022/04/09 10:29:20;;;;;;;5.68;1.55;;;17.00;64.50;;;;;;5016222;28;20285;-61
2022/04/09 10:31:51;;;;;;;6.43;1.40;;;17.00;64.50;;;;;;5012827;28;20022;-61
2022/04/09 10:34:17;;;;;;;7.63;1.50;;;17.00;64.40;;;;;;5013065;28;20030;-61
2022/04/09 10:36:43;;;;;;;5.40;1.45;;;17.00;64.30;;;;;;5018760;28;20025;-61
2022/04/09 10:39:42;;;;;;;5.35;1.50;;;17.00;64.30;;;;;;5015620;28;20105;-61
2022/04/09 10:42:09;;;;;;;3.92;1.13;;;17.00;64.10;;;;;;5016917;28;20503;-61
2022/04/09 10:44:43;;;;;;;3.90;1.20;;;17.00;64.30;;;;;;5013968;28;20034;-61
2022/04/09 10:47:14;;;;;;;6.53;1.50;;;17.00;64.10;;;;;;5016224;28;20120;-61
2022/04/09 10:50:00;;;;;;;3.83;1.10;;;17.00;64.00;;;;;;5013559;28;20041;-61
2022/04/09 10:52:27;;;;;;;5.22;1.30;;;17.10;63.80;;;;;;5012961;28;20056;-61
2022/04/09 10:55:12;;;;;;;4.82;1.30;;;17.10;63.70;;;;;;5011918;28;20537;-61
2022/04/09 10:57:42;;;;;;;6.25;1.42;;;17.10;63.70;;;;;;5018951;28;20058;-61
2022/04/09 11:00:09;;;;;;;4.38;1.48;;;17.10;63.50;;;;;;5014578;28;20025;-61
2022/04/09 11:02:36;;;;;;;4.70;1.42;;;17.10;63.50;;;;;;5014185;28;20042;-61
2022/04/09 11:05:22;;;;;;;3.50;1.10;;;17.10;63.40;;;;;;5017967;28;20026;-61
2022/04/09 11:08:05;;;;;;;6.78;1.27;;;17.20;63.40;;;;;;5017205;28;20065;-61
2022/04/09 11:10:31;;;;;;;4.15;1.45;;;17.20;63.40;;;;;;5017873;28;20037;-61
2022/04/09 11:12:57;;;;;;;5.38;1.35;;;17.20;63.20;;;;;;5021637;28;20022;-61
2022/04/09 11:15:23;;;;;;;5.38;1.13;;;17.20;63.00;;;;;;5016817;28;20029;-61
2022/04/09 11:17:49;;;;;;;4.28;1.20;;;17.30;63.00;;;;;;5013735;28;20406;-61
2022/04/09 11:20:19;;;;;;;4.55;1.00;;;17.30;62.90;;;;;;5025137;28;20026;-61
2022/04/09 11:22:52;;;;;;;5.43;1.27;;;17.30;62.90;;;;;;5025263;28;20046;-61
2022/04/09 11:25:25;;;;;;;3.63;1.20;;;17.30;62.70;;;;;;5019009;28;20046;-61
2022/04/09 11:28:13;;;;;;;5.47;1.45;;;17.20;61.90;;;;;;5019688;28;20052;-61
2022/04/09 11:31:00;;;;;;;6.32;1.52;;;17.10;60.50;;;;;;5025340;28;20526;-61
2022/04/09 11:33:25;;;;;;;5.97;1.80;;;17.00;57.20;;;;;;5018054;28;20034;-61
2022/04/09 11:35:51;;;;;;;7.03;1.20;;;17.00;57.20;;;;;;5023035;28;20819;-61
2022/04/09 11:38:17;;;;;;;7.38;1.42;;;16.90;56.90;;;;;;5033498;28;20064;-60
2022/04/09 11:40:46;;;;;;;7.30;1.50;;;16.90;55.20;;;;;;5018991;28;20050;-61
2022/04/09 11:43:14;;;;;;;4.45;1.30;;;16.90;55.20;;;;;;5026637;28;20064;-61
2022/04/09 11:45:40;;;;;;;5.38;1.42;;;16.90;56.10;;;;;;5020463;28;20036;-61
2022/04/09 11:48:06;;;;;;;6.55;1.58;;;17.00;56.50;;;;;;5020716;28;20034;-62
2022/04/09 11:50:37;;;;;;;5.65;1.33;;;16.90;51.10;;;;;;5029025;28;20048;-61
2022/04/09 11:53:13;;;;;;;6.10;1.33;;;16.80;50.10;;;;;;5019100;28;20040;-61
2022/04/09 11:55:39;;;;;;;6.30;1.42;;;16.70;49.80;;;;;;5013598;28;20501;-61
2022/04/09 11:58:05;;;;;;;8.05;1.35;;;16.60;50.10;;;;;;5015234;28;20517;-61
2022/04/09 12:00:34;;;;;;;5.93;1.13;;;16.50;48.30;;;;;;5020577;28;20034;-61
2022/04/09 12:03:04;;;;;;;3.92;1.20;;;16.40;48.40;;;;;;5026365;28;20080;-61
2022/04/09 12:05:46;;;;;;;7.40;1.27;;;16.30;47.90;;;;;;5018913;28;20509;-61
2022/04/09 12:08:15;;;;;;;7.57;1.50;;;16.30;47.80;;;;;;5022332;28;20033;-61
2022/04/09 12:10:54;;;;;;;5.20;1.33;;;16.30;47.70;;;;;;5014959;28;20037;-61
2022/04/09 12:13:31;;;;;;;7.00;1.60;;;16.20;47.40;;;;;;5015697;28;21464;-61
2022/04/09 12:16:09;;;;;;;6.43;1.40;;;16.20;47.20;;;;;;5021110;28;20034;-61
2022/04/09 12:18:36;;;;;;;4.88;1.60;;;16.20;46.30;;;;;;5016566;28;20034;-61
2022/04/09 12:21:21;;;;;;;6.30;1.50;;;16.10;46.30;;;;;;5019431;28;20084;-59
2022/04/09 12:24:03;;;;;;;5.40;1.48;;;16.00;45.70;;;;;;5018240;28;20121;-59
2022/04/09 12:26:29;;;;;;;6.47;1.42;;;16.10;46.30;;;;;;5023117;28;20445;-59
2022/04/09 12:29:08;;;;;;;6.57;1.40;;;16.10;46.10;;;;;;5028787;28;20031;-59
2022/04/09 12:31:34;;;;;;;6.03;1.50;;;16.10;46.10;;;;;;5018295;28;20033;-60
2022/04/09 12:34:01;;;;;;;6.22;1.45;;;16.00;45.70;;;;;;5021982;28;20038;-60
2022/04/09 12:36:27;;;;;;;5.18;1.23;;;16.00;45.90;;;;;;5015014;28;20442;-60
2022/04/09 12:38:53;;;;;;;6.03;1.10;;;16.10;45.80;;;;;;5019626;28;20030;-60
2022/04/09 12:41:18;;;;;;;8.70;1.50;;;16.10;45.40;;;;;;5017175;28;20678;-60
2022/04/09 12:43:46;;;;;;;5.70;1.40;;;16.20;46.70;;;;;;5021334;28;20050;-60
2022/04/09 12:46:15;;;;;;;2.88;0.90;;;16.10;45.10;;;;;;5017462;28;20037;-60
2022/04/09 12:48:51;;;;;;;6.30;1.40;;;16.10;44.70;;;;;;5027293;28;20517;-60